sensor_id;sensor_type;location;lat;lon;timestamp;pressure;altitude;pressure_sealevel;temperature;humidity
80184;BME280;69682;52.138;5.440;2024-02-23T00:00:32;98693.63;;;3.95;94.97
80184;BME280;69682;52.138;5.440;2024-02-23T00:02:59;98690.75;;;3.98;94.96
80184;BME280;69682;52.138;5.440;2024-02-23T00:05:25;98703.66;;;4.01;95.23
80184;BME280;69682;52.138;5.440;2024-02-23T00:07:52;98703.25;;;4.05;95.07
80184;BME280;69682;52.138;5.440;2024-02-23T00:10:18;98703.72;;;4.10;95.24
80184;BME280;69682;52.138;5.440;2024-02-23T00:12:45;98709.28;;;4.17;95.25
80184;BME280;69682;52.138;5.440;2024-02-23T00:15:13;98707.00;;;4.24;94.87
80184;BME280;69682;52.138;5.440;2024-02-23T00:17:40;98710.94;;;4.29;94.84
80184;BME280;69682;52.138;5.440;2024-02-23T00:20:09;98724.69;;;4.33;95.52
80184;BME280;69682;52.138;5.440;2024-02-23T00:22:37;98722.72;;;4.35;95.32
80184;BME280;69682;52.138;5.440;2024-02-23T00:25:05;98719.72;;;4.40;95.02
80184;BME280;69682;52.138;5.440;2024-02-23T00:27:32;98724.72;;;4.43;95.28
80184;BME280;69682;52.138;5.440;2024-02-23T00:29:58;98724.72;;;4.43;95.31
80184;BME280;69682;52.138;5.440;2024-02-23T00:32:25;98729.88;;;4.44;95.51
80184;BME280;69682;52.138;5.440;2024-02-23T00:34:52;98735.72;;;4.48;95.93
80184;BME280;69682;52.138;5.440;2024-02-23T00:37:18;98740.03;;;4.49;96.03
80184;BME280;69682;52.138;5.440;2024-02-23T00:39:44;98740.72;;;4.51;96.26
80184;BME280;69682;52.138;5.440;2024-02-23T00:42:11;98734.47;;;4.52;96.15
80184;BME280;69682;52.138;5.440;2024-02-23T00:44:37;98742.13;;;4.55;96.25
80184;BME280;69682;52.138;5.440;2024-02-23T00:47:04;98742.03;;;4.57;96.57
80184;BME280;69682;52.138;5.440;2024-02-23T00:49:31;98746.19;;;4.59;96.44
80184;BME280;69682;52.138;5.440;2024-02-23T00:51:57;98750.34;;;4.62;96.95
80184;BME280;69682;52.138;5.440;2024-02-23T00:54:24;98759.81;;;4.64;97.14
80184;BME280;69682;52.138;5.440;2024-02-23T00:56:50;98751.63;;;4.67;96.52
80184;BME280;69682;52.138;5.440;2024-02-23T00:59:20;98761.09;;;4.70;96.91
80184;BME280;69682;52.138;5.440;2024-02-23T01:01:47;98773.19;;;4.72;95.71
80184;BME280;69682;52.138;5.440;2024-02-23T01:04:14;98777.38;;;4.75;96.02
80184;BME280;69682;52.138;5.440;2024-02-23T01:06:40;98766.00;;;4.74;95.59
80184;BME280;69682;52.138;5.440;2024-02-23T01:09:07;98773.06;;;4.74;95.58
80184;BME280;69682;52.138;5.440;2024-02-23T01:11:35;98778.47;;;4.72;95.19
80184;BME280;69682;52.138;5.440;2024-02-23T01:14:02;98798.72;;;4.72;94.81
80184;BME280;69682;52.138;5.440;2024-02-23T01:16:28;98795.91;;;4.64;93.96
80184;BME280;69682;52.138;5.440;2024-02-23T01:18:55;98808.56;;;4.49;94.07
80184;BME280;69682;52.138;5.440;2024-02-23T01:21:22;98803.72;;;4.44;93.91
80184;BME280;69682;52.138;5.440;2024-02-23T01:23:48;98818.22;;;4.39;93.43
80184;BME280;69682;52.138;5.440;2024-02-23T01:26:14;98816.94;;;4.33;93.55
80184;BME280;69682;52.138;5.440;2024-02-23T01:28:41;98819.69;;;4.31;93.05
80184;BME280;69682;52.138;5.440;2024-02-23T01:31:09;98816.00;;;4.23;91.59
80184;BME280;69682;52.138;5.440;2024-02-23T01:33:38;98819.69;;;4.31;92.58
80184;BME280;69682;52.138;5.440;2024-02-23T01:36:05;98835.38;;;4.33;92.30
80184;BME280;69682;52.138;5.440;2024-02-23T01:38:32;98853.94;;;4.31;92.37
80184;BME280;69682;52.138;5.440;2024-02-23T01:40:59;98850.84;;;4.26;93.00
80184;BME280;69682;52.138;5.440;2024-02-23T01:43:26;98829.31;;;4.21;93.72
80184;BME280;69682;52.138;5.440;2024-02-23T01:45:53;98831.13;;;4.21;94.30
80184;BME280;69682;52.138;5.440;2024-02-23T01:48:20;98816.97;;;4.22;95.05
80184;BME280;69682;52.138;5.440;2024-02-23T01:50:47;98836.41;;;4.21;95.13
80184;BME280;69682;52.138;5.440;2024-02-23T01:53:14;98849.44;;;4.22;95.59
80184;BME280;69682;52.138;5.440;2024-02-23T01:55:42;98864.16;;;4.25;96.22
80184;BME280;69682;52.138;5.440;2024-02-23T01:58:09;98858.53;;;4.29;96.06
80184;BME280;69682;52.138;5.440;2024-02-23T02:00:35;98857.41;;;4.32;96.42
80184;BME280;69682;52.138;5.440;2024-02-23T02:03:04;98863.41;;;4.34;96.14
80184;BME280;69682;52.138;5.440;2024-02-23T02:05:36;98869.25;;;4.38;97.08
80184;BME280;69682;52.138;5.440;2024-02-23T02:08:04;98863.06;;;4.39;96.96
80184;BME280;69682;52.138;5.440;2024-02-23T02:10:31;98863.75;;;4.41;96.97
80184;BME280;69682;52.138;5.440;2024-02-23T02:13:04;98867.25;;;4.41;96.87
80184;BME280;69682;52.138;5.440;2024-02-23T02:15:31;98866.25;;;4.42;96.47
80184;BME280;69682;52.138;5.440;2024-02-23T02:17:58;98860.16;;;4.42;96.34
80184;BME280;69682;52.138;5.440;2024-02-23T02:20:25;98870.00;;;4.40;96.84
80184;BME280;69682;52.138;5.440;2024-02-23T02:22:55;98877.06;;;4.39;96.78
80184;BME280;69682;52.138;5.440;2024-02-23T02:25:21;98872.72;;;4.38;96.53
80184;BME280;69682;52.138;5.440;2024-02-23T02:27:48;98865.78;;;4.37;96.69
80184;BME280;69682;52.138;5.440;2024-02-23T02:30:15;98864.25;;;4.35;96.38
80184;BME280;69682;52.138;5.440;2024-02-23T02:32:41;98867.97;;;4.32;96.57
80184;BME280;69682;52.138;5.440;2024-02-23T02:35:11;98880.31;;;4.31;96.84
80184;BME280;69682;52.138;5.440;2024-02-23T02:37:39;98888.47;;;4.28;96.58
80184;BME280;69682;52.138;5.440;2024-02-23T02:40:06;98863.09;;;4.27;96.23
80184;BME280;69682;52.138;5.440;2024-02-23T02:42:33;98887.75;;;4.26;96.09
80184;BME280;69682;52.138;5.440;2024-02-23T02:45:00;98876.28;;;4.27;95.38
80184;BME280;69682;52.138;5.440;2024-02-23T02:47:27;98868.63;;;4.24;95.30
80184;BME280;69682;52.138;5.440;2024-02-23T02:49:54;98874.81;;;4.23;95.59
80184;BME280;69682;52.138;5.440;2024-02-23T02:52:20;98884.53;;;4.23;95.85
80184;BME280;69682;52.138;5.440;2024-02-23T02:54:49;98883.59;;;4.24;95.21
80184;BME280;69682;52.138;5.440;2024-02-23T02:57:16;98881.91;;;4.23;95.61
80184;BME280;69682;52.138;5.440;2024-02-23T02:59:42;98885.38;;;4.23;95.61
80184;BME280;69682;52.138;5.440;2024-02-23T03:02:11;98884.44;;;4.24;95.24
80184;BME280;69682;52.138;5.440;2024-02-23T03:04:37;98887.16;;;4.23;95.53
80184;BME280;69682;52.138;5.440;2024-02-23T03:07:04;98886.34;;;4.22;95.01
80184;BME280;69682;52.138;5.440;2024-02-23T03:09:31;98888.16;;;4.22;95.04
80184;BME280;69682;52.138;5.440;2024-02-23T03:11:57;98884.78;;;4.20;94.95
80184;BME280;69682;52.138;5.440;2024-02-23T03:14:25;98901.69;;;4.17;95.20
80184;BME280;69682;52.138;5.440;2024-02-23T03:16:52;98899.19;;;4.16;95.24
80184;BME280;69682;52.138;5.440;2024-02-23T03:19:19;98915.00;;;4.16;95.31
80184;BME280;69682;52.138;5.440;2024-02-23T03:21:49;98905.28;;;4.16;95.19
80184;BME280;69682;52.138;5.440;2024-02-23T03:24:18;98921.22;;;4.15;94.75
80184;BME280;69682;52.138;5.440;2024-02-23T03:26:44;98912.63;;;4.13;94.47
80184;BME280;69682;52.138;5.440;2024-02-23T03:29:11;98908.28;;;4.12;94.60
80184;BME280;69682;52.138;5.440;2024-02-23T03:31:38;98919.78;;;4.10;94.67
80184;BME280;69682;52.138;5.440;2024-02-23T03:34:04;98907.59;;;4.09;94.46
80184;BME280;69682;52.138;5.440;2024-02-23T03:36:31;98926.16;;;4.08;94.19
80184;BME280;69682;52.138;5.440;2024-02-23T03:38:57;98921.72;;;4.08;94.60
80184;BME280;69682;52.138;5.440;2024-02-23T03:41:24;98918.50;;;4.05;94.40
80184;BME280;69682;52.138;5.440;2024-02-23T03:43:51;98917.75;;;4.03;94.35
80184;BME280;69682;52.138;5.440;2024-02-23T03:46:18;98935.38;;;4.02;94.52
80184;BME280;69682;52.138;5.440;2024-02-23T03:48:46;98938.16;;;4.01;94.05
80184;BME280;69682;52.138;5.440;2024-02-23T03:51:12;98946.06;;;4.01;94.18
80184;BME280;69682;52.138;5.440;2024-02-23T03:53:39;98940.06;;;3.99;94.19
80184;BME280;69682;52.138;5.440;2024-02-23T03:56:06;98945.31;;;3.99;94.29
80184;BME280;69682;52.138;5.440;2024-02-23T03:58:32;98944.34;;;4.00;94.57
80184;BME280;69682;52.138;5.440;2024-02-23T04:00:59;98952.41;;;3.98;94.27
80184;BME280;69682;52.138;5.440;2024-02-23T04:03:25;98943.66;;;3.98;94.55
80184;BME280;69682;52.138;5.440;2024-02-23T04:05:52;98943.66;;;3.98;94.47
80184;BME280;69682;52.138;5.440;2024-02-23T04:08:18;98938.41;;;3.98;95.15
80184;BME280;69682;52.138;5.440;2024-02-23T04:10:45;98942.94;;;3.96;95.09
80184;BME280;69682;52.138;5.440;2024-02-23T04:13:12;98950.13;;;3.94;95.15
80184;BME280;69682;52.138;5.440;2024-02-23T04:15:40;98941.38;;;3.93;94.47
80184;BME280;69682;52.138;5.440;2024-02-23T04:18:06;98942.44;;;3.91;94.53
80184;BME280;69682;52.138;5.440;2024-02-23T04:20:33;98947.84;;;3.89;95.00
80184;BME280;69682;52.138;5.440;2024-02-23T04:23:00;98952.28;;;3.89;94.82
80184;BME280;69682;52.138;5.440;2024-02-23T04:25:27;98963.19;;;3.84;94.71
80184;BME280;69682;52.138;5.440;2024-02-23T04:27:53;98963.91;;;3.86;95.35
80184;BME280;69682;52.138;5.440;2024-02-23T04:30:21;98963.19;;;3.84;95.09
80184;BME280;69682;52.138;5.440;2024-02-23T04:32:47;98958.88;;;3.83;94.96
80184;BME280;69682;52.138;5.440;2024-02-23T04:35:15;98961.50;;;3.83;94.94
80184;BME280;69682;52.138;5.440;2024-02-23T04:37:44;98968.59;;;3.82;95.36
80184;BME280;69682;52.138;5.440;2024-02-23T04:40:11;98971.22;;;3.82;95.28
80184;BME280;69682;52.138;5.440;2024-02-23T04:42:38;98973.97;;;3.81;94.85
80184;BME280;69682;52.138;5.440;2024-02-23T04:45:06;98981.28;;;3.77;94.86
80184;BME280;69682;52.138;5.440;2024-02-23T04:47:33;98976.94;;;3.76;95.11
80184;BME280;69682;52.138;5.440;2024-02-23T04:50:00;98990.25;;;3.75;95.60
80184;BME280;69682;52.138;5.440;2024-02-23T04:52:26;98985.94;;;3.74;95.09
80184;BME280;69682;52.138;5.440;2024-02-23T04:54:53;98991.06;;;3.75;95.26
80184;BME280;69682;52.138;5.440;2024-02-23T04:57:19;98985.69;;;3.77;95.64
80184;BME280;69682;52.138;5.440;2024-02-23T04:59:46;98982.09;;;3.78;94.93
80184;BME280;69682;52.138;5.440;2024-02-23T05:02:12;98990.72;;;3.80;94.93
80184;BME280;69682;52.138;5.440;2024-02-23T05:04:39;98993.22;;;3.81;95.10
80184;BME280;69682;52.138;5.440;2024-02-23T05:07:06;98990.72;;;3.80;95.43
80184;BME280;69682;52.138;5.440;2024-02-23T05:09:33;98987.13;;;3.81;95.08
80184;BME280;69682;52.138;5.440;2024-02-23T05:12:01;98985.22;;;3.83;95.04
80184;BME280;69682;52.138;5.440;2024-02-23T05:14:28;98988.69;;;3.83;95.14
80184;BME280;69682;52.138;5.440;2024-02-23T05:16:54;98980.78;;;3.83;95.53
80184;BME280;69682;52.138;5.440;2024-02-23T05:19:27;98983.41;;;3.83;95.46
80184;BME280;69682;52.138;5.440;2024-02-23T05:21:54;98984.25;;;3.84;95.33
80184;BME280;69682;52.138;5.440;2024-02-23T05:24:23;98984.00;;;3.87;95.00
80184;BME280;69682;52.138;5.440;2024-02-23T05:26:49;98980.41;;;3.88;95.15
80184;BME280;69682;52.138;5.440;2024-02-23T05:29:16;98979.34;;;3.91;95.26
80184;BME280;69682;52.138;5.440;2024-02-23T05:31:52;98980.06;;;3.93;94.82
80184;BME280;69682;52.138;5.440;2024-02-23T05:34:19;98989.53;;;3.95;94.97
80184;BME280;69682;52.138;5.440;2024-02-23T05:36:47;98990.34;;;3.96;94.98
80184;BME280;69682;52.138;5.440;2024-02-23T05:39:14;98987.63;;;3.97;95.03
80184;BME280;69682;52.138;5.440;2024-02-23T05:41:44;98979.56;;;3.99;95.04
80184;BME280;69682;52.138;5.440;2024-02-23T05:44:10;98982.94;;;4.01;95.41
80184;BME280;69682;52.138;5.440;2024-02-23T05:46:39;98984.50;;;4.03;94.66
80184;BME280;69682;52.138;5.440;2024-02-23T05:49:06;98984.38;;;4.05;94.57
80184;BME280;69682;52.138;5.440;2024-02-23T05:51:32;98987.72;;;4.07;94.63
80184;BME280;69682;52.138;5.440;2024-02-23T05:54:00;98992.03;;;4.08;94.68
80184;BME280;69682;52.138;5.440;2024-02-23T05:56:26;98987.59;;;4.08;94.83
80184;BME280;69682;52.138;5.440;2024-02-23T05:58:53;98984.84;;;4.10;94.73
80184;BME280;69682;52.138;5.440;2024-02-23T06:01:20;98985.69;;;4.10;94.66
80184;BME280;69682;52.138;5.440;2024-02-23T06:03:47;98982.78;;;4.14;94.29
80184;BME280;69682;52.138;5.440;2024-02-23T06:06:13;98980.88;;;4.16;94.18
80184;BME280;69682;52.138;5.440;2024-02-23T06:08:43;98991.66;;;4.13;94.33
80184;BME280;69682;52.138;5.440;2024-02-23T06:11:10;98986.25;;;4.14;94.35
80184;BME280;69682;52.138;5.440;2024-02-23T06:13:37;98986.03;;;4.17;94.34
80184;BME280;69682;52.138;5.440;2024-02-23T06:16:05;98985.78;;;4.20;93.93
80184;BME280;69682;52.138;5.440;2024-02-23T06:18:36;98990.09;;;4.21;93.76
80184;BME280;69682;52.138;5.440;2024-02-23T06:21:03;98991.78;;;4.22;94.26
80184;BME280;69682;52.138;5.440;2024-02-23T06:23:31;98985.53;;;4.23;93.73
80184;BME280;69682;52.138;5.440;2024-02-23T06:25:58;98991.53;;;4.25;93.54
80184;BME280;69682;52.138;5.440;2024-02-23T06:28:24;98992.09;;;4.29;93.29
80184;BME280;69682;52.138;5.440;2024-02-23T06:30:51;98997.28;;;4.30;93.18
80184;BME280;69682;52.138;5.440;2024-02-23T06:33:17;99005.03;;;4.32;92.86
80184;BME280;69682;52.138;5.440;2024-02-23T06:35:44;99010.94;;;4.36;92.57
80184;BME280;69682;52.138;5.440;2024-02-23T06:38:11;99005.41;;;4.39;92.68
80184;BME280;69682;52.138;5.440;2024-02-23T06:40:37;99009.63;;;4.41;92.73
80184;BME280;69682;52.138;5.440;2024-02-23T06:43:17;99004.34;;;4.41;92.76
80184;BME280;69682;52.138;5.440;2024-02-23T06:45:48;99008.50;;;4.44;92.72
80184;BME280;69682;52.138;5.440;2024-02-23T06:48:14;99018.09;;;4.45;92.27
80184;BME280;69682;52.138;5.440;2024-02-23T06:50:41;99008.16;;;4.48;92.45
80184;BME280;69682;52.138;5.440;2024-02-23T06:53:08;99006.91;;;4.52;91.21
80184;BME280;69682;52.138;5.440;2024-02-23T06:55:35;99005.16;;;4.53;91.17
80184;BME280;69682;52.138;5.440;2024-02-23T06:58:02;98999.72;;;4.54;91.13
80184;BME280;69682;52.138;5.440;2024-02-23T07:00:31;99004.75;;;4.58;91.00
80184;BME280;69682;52.138;5.440;2024-02-23T07:02:58;98997.56;;;4.60;90.59
80184;BME280;69682;52.138;5.440;2024-02-23T07:05:25;98998.25;;;4.62;90.81
80184;BME280;69682;52.138;5.440;2024-02-23T07:07:52;98999.72;;;4.66;90.44
80184;BME280;69682;52.138;5.440;2024-02-23T07:10:19;99012.06;;;4.65;90.29
80184;BME280;69682;52.138;5.440;2024-02-23T07:12:46;99014.56;;;4.67;90.77
80184;BME280;69682;52.138;5.440;2024-02-23T07:15:14;99006.78;;;4.65;90.26
80184;BME280;69682;52.138;5.440;2024-02-23T07:17:40;99007.47;;;4.67;90.19
80184;BME280;69682;52.138;5.440;2024-02-23T07:20:07;99000.44;;;4.68;90.50
80184;BME280;69682;52.138;5.440;2024-02-23T07:22:34;99011.44;;;4.73;89.69
80184;BME280;69682;52.138;5.440;2024-02-23T07:25:01;99009.75;;;4.72;89.91
80184;BME280;69682;52.138;5.440;2024-02-23T07:27:30;99011.56;;;4.71;90.25
80184;BME280;69682;52.138;5.440;2024-02-23T07:29:57;98998.97;;;4.75;89.69
80184;BME280;69682;52.138;5.440;2024-02-23T07:32:23;99004.13;;;4.76;89.78
80184;BME280;69682;52.138;5.440;2024-02-23T07:34:51;98998.84;;;4.76;89.77
80184;BME280;69682;52.138;5.440;2024-02-23T07:37:18;98999.53;;;4.78;89.72
80184;BME280;69682;52.138;5.440;2024-02-23T07:39:44;99006.50;;;4.80;89.92
80184;BME280;69682;52.138;5.440;2024-02-23T07:42:11;98987.06;;;4.81;89.17
80184;BME280;69682;52.138;5.440;2024-02-23T07:44:39;98989.56;;;4.82;89.90
80184;BME280;69682;52.138;5.440;2024-02-23T07:47:06;98981.53;;;4.84;89.65
80184;BME280;69682;52.138;5.440;2024-02-23T07:49:33;98979.63;;;4.86;89.49
80184;BME280;69682;52.138;5.440;2024-02-23T07:51:59;98975.91;;;4.88;89.11
80184;BME280;69682;52.138;5.440;2024-02-23T07:54:26;98975.50;;;4.93;89.24
80184;BME280;69682;52.138;5.440;2024-02-23T07:56:52;98970.78;;;4.96;89.13
80184;BME280;69682;52.138;5.440;2024-02-23T07:59:19;98979.44;;;4.98;89.05
80184;BME280;69682;52.138;5.440;2024-02-23T08:01:46;98968.63;;;5.01;88.43
80184;BME280;69682;52.138;5.440;2024-02-23T08:04:13;98965.00;;;5.03;88.79
80184;BME280;69682;52.138;5.440;2024-02-23T08:06:41;98969.09;;;5.07;88.02
80184;BME280;69682;52.138;5.440;2024-02-23T08:09:08;98967.13;;;5.09;87.52
80184;BME280;69682;52.138;5.440;2024-02-23T08:11:35;98968.09;;;5.08;87.24
80184;BME280;69682;52.138;5.440;2024-02-23T08:14:02;98962.00;;;5.07;87.42
80184;BME280;69682;52.138;5.440;2024-02-23T08:16:29;98961.16;;;5.07;86.82
80184;BME280;69682;52.138;5.440;2024-02-23T08:18:56;98963.66;;;5.08;87.35
80184;BME280;69682;52.138;5.440;2024-02-23T08:21:22;98962.56;;;5.11;87.37
80184;BME280;69682;52.138;5.440;2024-02-23T08:23:49;98958.84;;;5.13;87.14
80184;BME280;69682;52.138;5.440;2024-02-23T08:26:15;98955.22;;;5.14;87.36
80184;BME280;69682;52.138;5.440;2024-02-23T08:28:42;98963.16;;;5.14;87.17
80184;BME280;69682;52.138;5.440;2024-02-23T08:31:09;98964.84;;;5.15;86.96
80184;BME280;69682;52.138;5.440;2024-02-23T08:33:36;98957.75;;;5.16;86.76
80184;BME280;69682;52.138;5.440;2024-02-23T08:36:03;98955.94;;;5.16;86.08
80184;BME280;69682;52.138;5.440;2024-02-23T08:38:32;98961.69;;;5.21;85.87
80184;BME280;69682;52.138;5.440;2024-02-23T08:40:59;98948.34;;;5.23;85.05
80184;BME280;69682;52.138;5.440;2024-02-23T08:43:26;98944.28;;;5.19;85.92
80184;BME280;69682;52.138;5.440;2024-02-23T08:45:55;98943.31;;;5.20;85.55
80184;BME280;69682;52.138;5.440;2024-02-23T08:48:27;98939.00;;;5.19;85.54
80184;BME280;69682;52.138;5.440;2024-02-23T08:50:54;98939.84;;;5.19;86.19
80184;BME280;69682;52.138;5.440;2024-02-23T08:53:21;98937.19;;;5.19;85.99
80184;BME280;69682;52.138;5.440;2024-02-23T08:55:48;98938.88;;;5.20;85.44
80184;BME280;69682;52.138;5.440;2024-02-23T08:58:15;98935.41;;;5.20;85.94
80184;BME280;69682;52.138;5.440;2024-02-23T09:00:42;98945.13;;;5.19;86.50
80184;BME280;69682;52.138;5.440;2024-02-23T09:03:09;98935.09;;;5.13;86.49
80184;BME280;69682;52.138;5.440;2024-02-23T09:05:35;98943.72;;;5.15;86.76
80184;BME280;69682;52.138;5.440;2024-02-23T09:08:02;98939.38;;;5.14;86.50
80184;BME280;69682;52.138;5.440;2024-02-23T09:10:29;98951.63;;;5.15;86.54
80184;BME280;69682;52.138;5.440;2024-02-23T09:12:55;98958.31;;;5.19;86.36
80184;BME280;69682;52.138;5.440;2024-02-23T09:15:22;98946.66;;;5.22;86.80
80184;BME280;69682;52.138;5.440;2024-02-23T09:17:48;98960.72;;;5.22;86.83
80184;BME280;69682;52.138;5.440;2024-02-23T09:20:15;98966.13;;;5.21;87.25
80184;BME280;69682;52.138;5.440;2024-02-23T09:22:42;98968.88;;;5.19;87.43
80184;BME280;69682;52.138;5.440;2024-02-23T09:25:09;98958.06;;;5.22;87.20
80184;BME280;69682;52.138;5.440;2024-02-23T09:27:35;98963.50;;;5.21;87.62
80184;BME280;69682;52.138;5.440;2024-02-23T09:30:07;98964.19;;;5.23;87.51
80184;BME280;69682;52.138;5.440;2024-02-23T09:32:33;98966.56;;;5.26;87.57
80184;BME280;69682;52.138;5.440;2024-02-23T09:35:00;98957.44;;;5.30;87.45
80184;BME280;69682;52.138;5.440;2024-02-23T09:37:26;98974.94;;;5.31;87.06
80184;BME280;69682;52.138;5.440;2024-02-23T09:39:53;98970.47;;;5.32;87.33
80184;BME280;69682;52.138;5.440;2024-02-23T09:42:22;98970.47;;;5.32;87.36
80184;BME280;69682;52.138;5.440;2024-02-23T09:44:59;98965.78;;;5.35;86.71
80184;BME280;69682;52.138;5.440;2024-02-23T09:47:27;98969.28;;;5.36;87.41
80184;BME280;69682;52.138;5.440;2024-02-23T09:49:55;98970.94;;;5.37;87.38
80184;BME280;69682;52.138;5.440;2024-02-23T09:52:22;98981.25;;;5.40;87.20
80184;BME280;69682;52.138;5.440;2024-02-23T09:54:49;98995.44;;;5.39;87.33
80184;BME280;69682;52.138;5.440;2024-02-23T09:57:16;98996.38;;;5.38;87.62
80184;BME280;69682;52.138;5.440;2024-02-23T09:59:44;99001.66;;;5.38;87.97
80184;BME280;69682;52.138;5.440;2024-02-23T10:02:15;98999.63;;;5.41;87.90
80184;BME280;69682;52.138;5.440;2024-02-23T10:04:43;99003.09;;;5.42;88.04
80184;BME280;69682;52.138;5.440;2024-02-23T10:07:10;98982.53;;;5.45;87.82
80184;BME280;69682;52.138;5.440;2024-02-23T10:09:37;98992.47;;;5.53;87.74
80184;BME280;69682;52.138;5.440;2024-02-23T10:12:03;98991.78;;;5.61;87.05
80184;BME280;69682;52.138;5.440;2024-02-23T10:14:30;98997.63;;;5.64;88.02
80184;BME280;69682;52.138;5.440;2024-02-23T10:16:57;98998.25;;;5.68;87.41
80184;BME280;69682;52.138;5.440;2024-02-23T10:19:25;98991.25;;;5.67;87.45
80184;BME280;69682;52.138;5.440;2024-02-23T10:21:56;99004.22;;;5.70;87.24
80184;BME280;69682;52.138;5.440;2024-02-23T10:24:23;99005.75;;;5.73;87.27
80184;BME280;69682;52.138;5.440;2024-02-23T10:26:51;98996.16;;;5.72;86.99
80184;BME280;69682;52.138;5.440;2024-02-23T10:29:18;99001.31;;;5.73;87.58
80184;BME280;69682;52.138;5.440;2024-02-23T10:31:47;99007.19;;;5.77;87.79
80184;BME280;69682;52.138;5.440;2024-02-23T10:34:19;99015.94;;;5.77;87.21
80184;BME280;69682;52.138;5.440;2024-02-23T10:36:46;99003.81;;;5.75;87.17
80184;BME280;69682;52.138;5.440;2024-02-23T10:39:18;99014.25;;;5.76;88.02
80184;BME280;69682;52.138;5.440;2024-02-23T10:41:57;99026.63;;;5.76;87.24
80184;BME280;69682;52.138;5.440;2024-02-23T10:44:27;99024.97;;;5.75;87.44
80184;BME280;69682;52.138;5.440;2024-02-23T10:46:55;99032.19;;;5.73;88.08
80184;BME280;69682;52.138;5.440;2024-02-23T10:49:23;99041.19;;;5.70;87.86
80184;BME280;69682;52.138;5.440;2024-02-23T10:51:53;99043.72;;;5.72;88.24
80184;BME280;69682;52.138;5.440;2024-02-23T10:54:20;99044.56;;;5.72;88.17
80184;BME280;69682;52.138;5.440;2024-02-23T10:56:50;99040.00;;;5.74;88.33
80184;BME280;69682;52.138;5.440;2024-02-23T10:59:18;99046.81;;;5.77;88.70
80184;BME280;69682;52.138;5.440;2024-02-23T11:01:49;99043.06;;;5.79;88.40
80184;BME280;69682;52.138;5.440;2024-02-23T11:04:17;99042.56;;;5.85;87.86
80184;BME280;69682;52.138;5.440;2024-02-23T11:06:49;99043.69;;;5.92;87.51
80184;BME280;69682;52.138;5.440;2024-02-23T11:09:20;99045.56;;;6.02;87.49
80184;BME280;69682;52.138;5.440;2024-02-23T11:11:53;99046.59;;;6.10;87.13
80184;BME280;69682;52.138;5.440;2024-02-23T11:14:35;99036.47;;;6.16;86.41
80184;BME280;69682;52.138;5.440;2024-02-23T11:17:03;99043.03;;;6.21;86.24
80184;BME280;69682;52.138;5.440;2024-02-23T11:19:34;99042.94;;;6.32;86.89
80184;BME280;69682;52.138;5.440;2024-02-23T11:22:03;99039.22;;;6.45;86.26
80184;BME280;69682;52.138;5.440;2024-02-23T11:24:31;99046.72;;;6.49;86.21
80184;BME280;69682;52.138;5.440;2024-02-23T11:26:59;99056.91;;;6.54;85.41
80184;BME280;69682;52.138;5.440;2024-02-23T11:29:27;99042.88;;;6.63;85.21
80184;BME280;69682;52.138;5.440;2024-02-23T11:31:55;99045.50;;;6.63;85.62
80184;BME280;69682;52.138;5.440;2024-02-23T11:34:27;99049.97;;;6.63;84.36
80184;BME280;69682;52.138;5.440;2024-02-23T11:36:54;99045.50;;;6.63;86.03
80184;BME280;69682;52.138;5.440;2024-02-23T11:39:21;99047.06;;;6.75;85.40
80184;BME280;69682;52.138;5.440;2024-02-23T11:41:49;99032.59;;;6.79;84.69
80184;BME280;69682;52.138;5.440;2024-02-23T11:44:16;99055.88;;;6.86;83.75
80184;BME280;69682;52.138;5.440;2024-02-23T11:46:44;99055.59;;;6.98;84.33
80184;BME280;69682;52.138;5.440;2024-02-23T11:49:11;99055.44;;;7.00;83.42
80184;BME280;69682;52.138;5.440;2024-02-23T11:51:38;99050.03;;;7.01;83.35
80184;BME280;69682;52.138;5.440;2024-02-23T11:54:05;99066.31;;;6.97;81.98
80184;BME280;69682;52.138;5.440;2024-02-23T11:56:32;99067.28;;;6.96;82.63
80184;BME280;69682;52.138;5.440;2024-02-23T11:58:58;99059.34;;;6.96;81.97
80184;BME280;69682;52.138;5.440;2024-02-23T12:01:29;99060.06;;;6.98;83.40
80184;BME280;69682;52.138;5.440;2024-02-23T12:03:55;99069.53;;;7.00;82.48
80184;BME280;69682;52.138;5.440;2024-02-23T12:06:22;99063.25;;;7.01;82.23
80184;BME280;69682;52.138;5.440;2024-02-23T12:08:48;99067.03;;;6.99;82.66
80184;BME280;69682;52.138;5.440;2024-02-23T12:11:15;99064.66;;;6.96;81.86
80184;BME280;69682;52.138;5.440;2024-02-23T12:13:42;99066.59;;;6.94;83.42
80184;BME280;69682;52.138;5.440;2024-02-23T12:16:09;99077.19;;;6.94;83.23
80184;BME280;69682;52.138;5.440;2024-02-23T12:18:36;99080.53;;;6.96;82.77
80184;BME280;69682;52.138;5.440;2024-02-23T12:21:06;99069.13;;;6.95;81.87
80184;BME280;69682;52.138;5.440;2024-02-23T12:23:40;99069.81;;;6.97;82.07
80184;BME280;69682;52.138;5.440;2024-02-23T12:26:08;99068.44;;;7.03;82.85
80184;BME280;69682;52.138;5.440;2024-02-23T12:28:35;99062.00;;;7.05;81.87
80184;BME280;69682;52.138;5.440;2024-02-23T12:31:03;99068.44;;;7.13;81.84
80184;BME280;69682;52.138;5.440;2024-02-23T12:33:35;99064.94;;;7.32;81.00
80184;BME280;69682;52.138;5.440;2024-02-23T12:36:03;99081.25;;;7.37;81.07
80184;BME280;69682;52.138;5.440;2024-02-23T12:38:30;99083.78;;;7.38;81.23
80184;BME280;69682;52.138;5.440;2024-02-23T12:40:59;99081.13;;;7.38;80.90
80184;BME280;69682;52.138;5.440;2024-02-23T12:43:26;99080.28;;;7.38;81.87
80184;BME280;69682;52.138;5.440;2024-02-23T12:45:53;99077.78;;;7.36;80.41
80184;BME280;69682;52.138;5.440;2024-02-23T12:48:23;99081.81;;;7.40;79.29
80184;BME280;69682;52.138;5.440;2024-02-23T12:50:51;99093.53;;;7.47;80.05
80184;BME280;69682;52.138;5.440;2024-02-23T12:53:40;99080.41;;;7.46;79.28
80184;BME280;69682;52.138;5.440;2024-02-23T12:56:09;99091.72;;;7.48;79.14
80184;BME280;69682;52.138;5.440;2024-02-23T12:58:37;99100.09;;;7.53;78.85
80184;BME280;69682;52.138;5.440;2024-02-23T13:01:04;99096.31;;;7.56;78.81
80184;BME280;69682;52.138;5.440;2024-02-23T13:03:33;99084.19;;;7.53;79.17
80184;BME280;69682;52.138;5.440;2024-02-23T13:05:59;99092.97;;;7.63;77.13
80184;BME280;69682;52.138;5.440;2024-02-23T13:08:26;99094.63;;;7.74;78.97
80184;BME280;69682;52.138;5.440;2024-02-23T13:10:54;99104.94;;;7.77;77.17